sensor_id;sensor_type;location;lat;lon;timestamp;P1;durP1;ratioP1;P2;durP2;ratioP2
73168;SDS011;61379;59.732;30.468;2022-09-09T00:00:44;13.63;;;7.18;;
73168;SDS011;61379;59.732;30.468;2022-09-09T00:03:14;12.90;;;9.60;;
73168;SDS011;61379;59.732;30.468;2022-09-09T00:08:11;12.30;;;8.30;;
73168;SDS011;61379;59.732;30.468;2022-09-09T00:10:43;13.00;;;7.75;;
73168;SDS011;61379;59.732;30.468;2022-09-09T00:13:14;13.95;;;8.77;;
73168;SDS011;61379;59.732;30.468;2022-09-09T00:15:44;9.82;;;8.82;;
73168;SDS011;61379;59.732;30.468;2022-09-09T00:18:15;10.38;;;9.10;;
73168;SDS011;61379;59.732;30.468;2022-09-09T00:20:44;10.90;;;8.65;;
73168;SDS011;61379;59.732;30.468;2022-09-09T00:23:19;10.68;;;7.85;;
73168;SDS011;61379;59.732;30.468;2022-09-09T00:25:53;11.32;;;8.35;;
73168;SDS011;61379;59.732;30.468;2022-09-09T00:28:22;8.50;;;7.70;;
73168;SDS011;61379;59.732;30.468;2022-09-09T00:30:49;11.40;;;8.65;;
73168;SDS011;61379;59.732;30.468;2022-09-09T00:33:17;11.20;;;8.25;;
73168;SDS011;61379;59.732;30.468;2022-09-09T00:35:48;9.30;;;8.40;;
73168;SDS011;61379;59.732;30.468;2022-09-09T00:38:16;10.52;;;8.82;;
73168;SDS011;61379;59.732;30.468;2022-09-09T00:40:49;9.15;;;8.18;;
73168;SDS011;61379;59.732;30.468;2022-09-09T00:43:21;10.50;;;8.48;;
73168;SDS011;61379;59.732;30.468;2022-09-09T00:50:59;8.70;;;7.78;;
73168;SDS011;61379;59.732;30.468;2022-09-09T00:53:31;16.38;;;8.20;;
73168;SDS011;61379;59.732;30.468;2022-09-09T00:56:06;13.55;;;8.82;;
73168;SDS011;61379;59.732;30.468;2022-09-09T00:58:35;10.07;;;7.88;;
73168;SDS011;61379;59.732;30.468;2022-09-09T01:01:03;8.82;;;7.57;;
73168;SDS011;61379;59.732;30.468;2022-09-09T01:03:36;9.88;;;7.65;;
73168;SDS011;61379;59.732;30.468;2022-09-09T01:06:14;9.68;;;7.25;;
73168;SDS011;61379;59.732;30.468;2022-09-09T01:08:59;11.75;;;8.85;;
73168;SDS011;61379;59.732;30.468;2022-09-09T01:11:32;10.02;;;8.95;;
73168;SDS011;61379;59.732;30.468;2022-09-09T01:14:01;11.27;;;9.20;;
73168;SDS011;61379;59.732;30.468;2022-09-09T01:16:30;11.93;;;8.18;;
73168;SDS011;61379;59.732;30.468;2022-09-09T01:18:57;15.27;;;7.95;;
73168;SDS011;61379;59.732;30.468;2022-09-09T01:21:26;9.02;;;8.23;;
73168;SDS011;61379;59.732;30.468;2022-09-09T01:24:10;14.48;;;9.85;;
73168;SDS011;61379;59.732;30.468;2022-09-09T01:26:43;11.88;;;7.93;;
73168;SDS011;61379;59.732;30.468;2022-09-09T01:29:11;11.48;;;8.63;;
73168;SDS011;61379;59.732;30.468;2022-09-09T01:31:39;10.75;;;8.27;;
73168;SDS011;61379;59.732;30.468;2022-09-09T01:34:11;11.15;;;8.45;;
73168;SDS011;61379;59.732;30.468;2022-09-09T01:36:39;9.88;;;8.85;;
73168;SDS011;61379;59.732;30.468;2022-09-09T01:39:07;11.60;;;8.77;;
73168;SDS011;61379;59.732;30.468;2022-09-09T01:41:34;10.50;;;9.07;;
73168;SDS011;61379;59.732;30.468;2022-09-09T01:44:02;12.20;;;9.32;;
73168;SDS011;61379;59.732;30.468;2022-09-09T01:46:29;10.55;;;9.13;;
73168;SDS011;61379;59.732;30.468;2022-09-09T01:48:56;9.18;;;8.27;;
73168;SDS011;61379;59.732;30.468;2022-09-09T01:51:23;12.15;;;9.15;;
73168;SDS011;61379;59.732;30.468;2022-09-09T01:53:50;9.90;;;8.90;;
73168;SDS011;61379;59.732;30.468;2022-09-09T01:56:21;11.18;;;8.80;;
73168;SDS011;61379;59.732;30.468;2022-09-09T01:58:57;10.52;;;9.25;;
73168;SDS011;61379;59.732;30.468;2022-09-09T02:01:31;10.25;;;9.20;;
73168;SDS011;61379;59.732;30.468;2022-09-09T02:04:01;10.45;;;9.45;;
73168;SDS011;61379;59.732;30.468;2022-09-09T02:06:30;11.68;;;9.88;;
73168;SDS011;61379;59.732;30.468;2022-09-09T02:09:00;12.38;;;9.80;;
73168;SDS011;61379;59.732;30.468;2022-09-09T02:11:28;11.98;;;9.27;;
73168;SDS011;61379;59.732;30.468;2022-09-09T02:13:56;11.02;;;8.77;;
73168;SDS011;61379;59.732;30.468;2022-09-09T02:16:25;11.23;;;10.02;;
73168;SDS011;61379;59.732;30.468;2022-09-09T02:18:55;14.85;;;9.88;;
73168;SDS011;61379;59.732;30.468;2022-09-09T02:21:22;10.80;;;8.90;;
73168;SDS011;61379;59.732;30.468;2022-09-09T02:23:49;10.27;;;9.13;;
73168;SDS011;61379;59.732;30.468;2022-09-09T02:26:17;10.98;;;9.43;;
73168;SDS011;61379;59.732;30.468;2022-09-09T02:28:47;11.57;;;9.80;;
73168;SDS011;61379;59.732;30.468;2022-09-09T02:31:15;13.98;;;9.45;;
73168;SDS011;61379;59.732;30.468;2022-09-09T02:33:43;12.38;;;9.70;;
73168;SDS011;61379;59.732;30.468;2022-09-09T02:36:12;9.95;;;8.95;;
73168;SDS011;61379;59.732;30.468;2022-09-09T02:38:42;11.50;;;9.70;;
73168;SDS011;61379;59.732;30.468;2022-09-09T02:41:11;13.65;;;9.43;;
73168;SDS011;61379;59.732;30.468;2022-09-09T02:43:38;16.75;;;10.15;;
73168;SDS011;61379;59.732;30.468;2022-09-09T02:46:07;10.30;;;8.23;;
73168;SDS011;61379;59.732;30.468;2022-09-09T02:48:36;10.48;;;8.85;;
73168;SDS011;61379;59.732;30.468;2022-09-09T02:51:08;12.00;;;9.68;;
73168;SDS011;61379;59.732;30.468;2022-09-09T02:53:39;10.77;;;9.77;;
73168;SDS011;61379;59.732;30.468;2022-09-09T02:56:12;10.80;;;9.80;;
73168;SDS011;61379;59.732;30.468;2022-09-09T02:58:40;11.50;;;9.95;;
73168;SDS011;61379;59.732;30.468;2022-09-09T03:01:07;10.10;;;9.18;;
73168;SDS011;61379;59.732;30.468;2022-09-09T03:03:34;11.55;;;10.43;;
73168;SDS011;61379;59.732;30.468;2022-09-09T03:06:01;10.93;;;10.02;;
73168;SDS011;61379;59.732;30.468;2022-09-09T03:08:27;12.32;;;10.73;;
73168;SDS011;61379;59.732;30.468;2022-09-09T03:10:57;11.55;;;10.35;;
73168;SDS011;61379;59.732;30.468;2022-09-09T03:13:26;11.88;;;10.68;;
73168;SDS011;61379;59.732;30.468;2022-09-09T03:15:53;12.48;;;10.82;;
73168;SDS011;61379;59.732;30.468;2022-09-09T03:18:20;11.45;;;10.25;;
73168;SDS011;61379;59.732;30.468;2022-09-09T03:20:46;12.32;;;11.05;;
73168;SDS011;61379;59.732;30.468;2022-09-09T03:23:14;12.40;;;11.27;;
73168;SDS011;61379;59.732;30.468;2022-09-09T03:25:45;10.35;;;9.35;;
73168;SDS011;61379;59.732;30.468;2022-09-09T03:28:14;12.27;;;11.02;;
73168;SDS011;61379;59.732;30.468;2022-09-09T03:30:40;12.77;;;11.48;;
73168;SDS011;61379;59.732;30.468;2022-09-09T03:33:07;10.43;;;8.82;;
73168;SDS011;61379;59.732;30.468;2022-09-09T03:35:34;10.95;;;9.95;;
73168;SDS011;61379;59.732;30.468;2022-09-09T03:38:01;10.15;;;9.15;;
73168;SDS011;61379;59.732;30.468;2022-09-09T03:40:28;10.27;;;9.18;;
73168;SDS011;61379;59.732;30.468;2022-09-09T03:42:56;12.02;;;10.77;;
73168;SDS011;61379;59.732;30.468;2022-09-09T03:45:24;11.80;;;9.90;;
73168;SDS011;61379;59.732;30.468;2022-09-09T03:47:50;11.55;;;10.40;;
73168;SDS011;61379;59.732;30.468;2022-09-09T03:50:17;11.38;;;9.38;;
73168;SDS011;61379;59.732;30.468;2022-09-09T03:52:44;11.05;;;9.90;;
73168;SDS011;61379;59.732;30.468;2022-09-09T03:55:12;11.85;;;10.75;;
73168;SDS011;61379;59.732;30.468;2022-09-09T03:57:38;11.85;;;10.65;;
73168;SDS011;61379;59.732;30.468;2022-09-09T04:00:06;12.77;;;10.98;;
73168;SDS011;61379;59.732;30.468;2022-09-09T04:02:34;14.23;;;11.77;;
73168;SDS011;61379;59.732;30.468;2022-09-09T04:05:01;12.60;;;11.23;;
73168;SDS011;61379;59.732;30.468;2022-09-09T04:07:29;11.93;;;10.68;;
73168;SDS011;61379;59.732;30.468;2022-09-09T04:09:55;11.07;;;10.02;;
73168;SDS011;61379;59.732;30.468;2022-09-09T04:12:22;12.93;;;9.23;;
73168;SDS011;61379;59.732;30.468;2022-09-09T04:14:49;11.95;;;9.43;;
73168;SDS011;61379;59.732;30.468;2022-09-09T04:17:15;10.63;;;9.63;;
73168;SDS011;61379;59.732;30.468;2022-09-09T04:19:44;9.93;;;8.98;;
73168;SDS011;61379;59.732;30.468;2022-09-09T04:22:10;10.73;;;9.70;;
73168;SDS011;61379;59.732;30.468;2022-09-09T04:24:37;11.15;;;7.68;;
73168;SDS011;61379;59.732;30.468;2022-09-09T04:27:04;10.55;;;9.25;;
73168;SDS011;61379;59.732;30.468;2022-09-09T04:29:30;11.65;;;10.00;;
73168;SDS011;61379;59.732;30.468;2022-09-09T04:31:57;10.90;;;9.93;;
73168;SDS011;61379;59.732;30.468;2022-09-09T04:34:24;11.70;;;10.63;;
73168;SDS011;61379;59.732;30.468;2022-09-09T04:36:52;10.50;;;9.40;;
73168;SDS011;61379;59.732;30.468;2022-09-09T04:39:18;11.13;;;9.35;;
73168;SDS011;61379;59.732;30.468;2022-09-09T04:41:45;10.70;;;9.52;;
73168;SDS011;61379;59.732;30.468;2022-09-09T04:44:12;10.05;;;9.00;;
73168;SDS011;61379;59.732;30.468;2022-09-09T04:46:39;11.23;;;9.60;;
73168;SDS011;61379;59.732;30.468;2022-09-09T04:49:06;10.15;;;9.13;;
73168;SDS011;61379;59.732;30.468;2022-09-09T04:51:33;11.02;;;9.90;;
73168;SDS011;61379;59.732;30.468;2022-09-09T04:54:01;13.95;;;10.80;;
73168;SDS011;61379;59.732;30.468;2022-09-09T04:56:27;12.43;;;9.65;;
73168;SDS011;61379;59.732;30.468;2022-09-09T04:58:54;12.25;;;9.65;;
73168;SDS011;61379;59.732;30.468;2022-09-09T05:01:21;12.57;;;8.98;;
73168;SDS011;61379;59.732;30.468;2022-09-09T05:03:49;11.43;;;9.63;;
73168;SDS011;61379;59.732;30.468;2022-09-09T05:06:16;11.70;;;9.80;;
73168;SDS011;61379;59.732;30.468;2022-09-09T05:08:43;10.63;;;9.55;;
73168;SDS011;61379;59.732;30.468;2022-09-09T05:11:16;10.18;;;8.90;;
73168;SDS011;61379;59.732;30.468;2022-09-09T05:13:43;11.27;;;9.60;;
73168;SDS011;61379;59.732;30.468;2022-09-09T05:16:10;10.95;;;9.10;;
73168;SDS011;61379;59.732;30.468;2022-09-09T05:18:37;10.77;;;9.73;;
73168;SDS011;61379;59.732;30.468;2022-09-09T05:21:04;8.85;;;7.57;;
73168;SDS011;61379;59.732;30.468;2022-09-09T05:23:30;9.82;;;8.25;;
73168;SDS011;61379;59.732;30.468;2022-09-09T05:25:58;11.57;;;8.57;;
73168;SDS011;61379;59.732;30.468;2022-09-09T05:28:26;10.43;;;9.27;;
73168;SDS011;61379;59.732;30.468;2022-09-09T05:30:56;12.90;;;9.05;;
73168;SDS011;61379;59.732;30.468;2022-09-09T05:33:23;11.38;;;9.48;;
73168;SDS011;61379;59.732;30.468;2022-09-09T05:35:54;10.27;;;9.25;;
73168;SDS011;61379;59.732;30.468;2022-09-09T05:38:21;15.85;;;9.00;;
73168;SDS011;61379;59.732;30.468;2022-09-09T05:40:49;11.43;;;9.20;;
73168;SDS011;61379;59.732;30.468;2022-09-09T05:43:17;10.55;;;9.50;;
73168;SDS011;61379;59.732;30.468;2022-09-09T05:45:45;9.32;;;7.53;;
73168;SDS011;61379;59.732;30.468;2022-09-09T05:48:12;10.20;;;8.55;;
73168;SDS011;61379;59.732;30.468;2022-09-09T05:50:40;11.77;;;7.47;;
73168;SDS011;61379;59.732;30.468;2022-09-09T05:53:07;10.18;;;9.18;;
73168;SDS011;61379;59.732;30.468;2022-09-09T05:55:34;9.05;;;8.15;;
73168;SDS011;61379;59.732;30.468;2022-09-09T05:58:01;10.98;;;7.53;;
73168;SDS011;61379;59.732;30.468;2022-09-09T06:00:28;7.80;;;7.00;;
73168;SDS011;61379;59.732;30.468;2022-09-09T06:02:58;8.88;;;7.65;;
73168;SDS011;61379;59.732;30.468;2022-09-09T06:05:25;10.48;;;7.00;;
73168;SDS011;61379;59.732;30.468;2022-09-09T06:07:53;9.27;;;7.18;;
73168;SDS011;61379;59.732;30.468;2022-09-09T06:10:21;7.80;;;6.00;;
73168;SDS011;61379;59.732;30.468;2022-09-09T06:12:48;7.10;;;6.45;;
73168;SDS011;61379;59.732;30.468;2022-09-09T06:15:14;6.97;;;6.32;;
73168;SDS011;61379;59.732;30.468;2022-09-09T06:17:41;7.63;;;6.93;;
73168;SDS011;61379;59.732;30.468;2022-09-09T06:20:10;8.02;;;7.18;;
73168;SDS011;61379;59.732;30.468;2022-09-09T06:22:38;7.75;;;7.05;;
73168;SDS011;61379;59.732;30.468;2022-09-09T06:25:06;7.43;;;6.93;;
73168;SDS011;61379;59.732;30.468;2022-09-09T06:27:33;7.35;;;6.63;;
73168;SDS011;61379;59.732;30.468;2022-09-09T06:29:59;8.40;;;6.70;;
73168;SDS011;61379;59.732;30.468;2022-09-09T06:32:29;8.15;;;7.13;;
73168;SDS011;61379;59.732;30.468;2022-09-09T06:34:58;6.93;;;6.38;;
73168;SDS011;61379;59.732;30.468;2022-09-09T06:37:27;7.32;;;6.20;;
73168;SDS011;61379;59.732;30.468;2022-09-09T06:39:54;9.73;;;6.63;;
73168;SDS011;61379;59.732;30.468;2022-09-09T06:42:21;8.57;;;6.65;;
73168;SDS011;61379;59.732;30.468;2022-09-09T06:44:48;9.85;;;6.70;;
73168;SDS011;61379;59.732;30.468;2022-09-09T06:47:14;7.50;;;6.90;;
73168;SDS011;61379;59.732;30.468;2022-09-09T06:49:41;7.40;;;6.78;;
73168;SDS011;61379;59.732;30.468;2022-09-09T06:52:09;7.25;;;6.57;;
73168;SDS011;61379;59.732;30.468;2022-09-09T06:54:37;16.08;;;9.23;;
73168;SDS011;61379;59.732;30.468;2022-09-09T06:57:03;8.35;;;6.93;;
73168;SDS011;61379;59.732;30.468;2022-09-09T06:59:32;6.80;;;6.40;;
73168;SDS011;61379;59.732;30.468;2022-09-09T07:01:59;7.20;;;6.55;;
73168;SDS011;61379;59.732;30.468;2022-09-09T07:04:26;7.25;;;6.68;;
73168;SDS011;61379;59.732;30.468;2022-09-09T07:06:53;5.68;;;5.18;;
73168;SDS011;61379;59.732;30.468;2022-09-09T07:09:20;5.95;;;5.18;;
73168;SDS011;61379;59.732;30.468;2022-09-09T07:11:48;7.00;;;6.35;;
73168;SDS011;61379;59.732;30.468;2022-09-09T07:14:16;7.05;;;6.55;;
73168;SDS011;61379;59.732;30.468;2022-09-09T07:16:43;7.60;;;6.85;;
73168;SDS011;61379;59.732;30.468;2022-09-09T07:19:10;8.32;;;7.05;;
73168;SDS011;61379;59.732;30.468;2022-09-09T07:21:37;6.85;;;6.35;;
73168;SDS011;61379;59.732;30.468;2022-09-09T07:24:05;6.75;;;6.15;;
73168;SDS011;61379;59.732;30.468;2022-09-09T07:26:32;5.88;;;5.38;;
73168;SDS011;61379;59.732;30.468;2022-09-09T07:29:00;7.15;;;6.57;;
73168;SDS011;61379;59.732;30.468;2022-09-09T07:31:28;6.57;;;6.07;;
73168;SDS011;61379;59.732;30.468;2022-09-09T07:33:56;6.60;;;6.10;;
73168;SDS011;61379;59.732;30.468;2022-09-09T07:36:23;7.50;;;6.90;;
73168;SDS011;61379;59.732;30.468;2022-09-09T07:38:51;6.28;;;5.78;;
73168;SDS011;61379;59.732;30.468;2022-09-09T07:41:19;8.32;;;6.95;;
73168;SDS011;61379;59.732;30.468;2022-09-09T07:43:47;6.28;;;5.68;;
73168;SDS011;61379;59.732;30.468;2022-09-09T07:46:16;6.63;;;5.95;;
73168;SDS011;61379;59.732;30.468;2022-09-09T07:48:44;6.70;;;6.10;;
73168;SDS011;61379;59.732;30.468;2022-09-09T07:51:12;6.70;;;6.20;;
73168;SDS011;61379;59.732;30.468;2022-09-09T07:53:40;7.63;;;6.97;;
73168;SDS011;61379;59.732;30.468;2022-09-09T07:56:08;7.45;;;6.88;;
73168;SDS011;61379;59.732;30.468;2022-09-09T07:58:35;6.95;;;6.45;;
73168;SDS011;61379;59.732;30.468;2022-09-09T08:01:06;7.13;;;6.45;;
73168;SDS011;61379;59.732;30.468;2022-09-09T08:03:34;7.50;;;6.93;;
73168;SDS011;61379;59.732;30.468;2022-09-09T08:06:01;7.55;;;6.55;;
73168;SDS011;61379;59.732;30.468;2022-09-09T08:08:28;7.20;;;6.50;;
73168;SDS011;61379;59.732;30.468;2022-09-09T08:11:00;6.95;;;6.45;;
73168;SDS011;61379;59.732;30.468;2022-09-09T08:13:27;7.65;;;6.80;;
73168;SDS011;61379;59.732;30.468;2022-09-09T08:15:54;7.68;;;6.95;;
73168;SDS011;61379;59.732;30.468;2022-09-09T08:18:20;8.20;;;6.63;;
73168;SDS011;61379;59.732;30.468;2022-09-09T08:20:49;6.57;;;6.05;;
73168;SDS011;61379;59.732;30.468;2022-09-09T08:23:16;7.45;;;6.75;;
73168;SDS011;61379;59.732;30.468;2022-09-09T08:25:43;6.80;;;6.05;;
73168;SDS011;61379;59.732;30.468;2022-09-09T08:28:10;7.25;;;6.55;;
73168;SDS011;61379;59.732;30.468;2022-09-09T08:30:37;11.18;;;6.93;;
73168;SDS011;61379;59.732;30.468;2022-09-09T08:33:04;6.63;;;6.13;;
73168;SDS011;61379;59.732;30.468;2022-09-09T08:35:31;9.35;;;6.60;;
73168;SDS011;61379;59.732;30.468;2022-09-09T08:37:59;6.50;;;6.00;;
73168;SDS011;61379;59.732;30.468;2022-09-09T08:40:26;6.45;;;5.95;;
73168;SDS011;61379;59.732;30.468;2022-09-09T08:42:54;8.10;;;7.40;;
73168;SDS011;61379;59.732;30.468;2022-09-09T08:45:31;7.22;;;6.53;;
73168;SDS011;61379;59.732;30.468;2022-09-09T08:48:06;6.85;;;6.20;;
73168;SDS011;61379;59.732;30.468;2022-09-09T08:50:39;6.93;;;6.32;;
73168;SDS011;61379;59.732;30.468;2022-09-09T08:53:10;6.65;;;6.15;;
73168;SDS011;61379;59.732;30.468;2022-09-09T08:55:39;7.00;;;6.40;;
73168;SDS011;61379;59.732;30.468;2022-09-09T08:58:11;7.13;;;6.43;;
73168;SDS011;61379;59.732;30.468;2022-09-09T09:00:40;6.28;;;5.78;;
73168;SDS011;61379;59.732;30.468;2022-09-09T09:03:11;6.60;;;6.10;;
73168;SDS011;61379;59.732;30.468;2022-09-09T09:05:44;7.07;;;5.57;;
73168;SDS011;61379;59.732;30.468;2022-09-09T09:08:15;7.10;;;6.45;;
73168;SDS011;61379;59.732;30.468;2022-09-09T09:10:45;7.13;;;6.45;;
73168;SDS011;61379;59.732;30.468;2022-09-09T09:13:13;6.70;;;6.20;;
73168;SDS011;61379;59.732;30.468;2022-09-09T09:15:41;7.63;;;7.03;;
73168;SDS011;61379;59.732;30.468;2022-09-09T09:18:08;11.32;;;7.15;;
73168;SDS011;61379;59.732;30.468;2022-09-09T09:20:38;9.10;;;8.30;;
73168;SDS011;61379;59.732;30.468;2022-09-09T09:23:09;9.10;;;7.32;;
73168;SDS011;61379;59.732;30.468;2022-09-09T09:25:42;7.47;;;6.80;;
73168;SDS011;61379;59.732;30.468;2022-09-09T09:28:11;7.32;;;6.72;;
73168;SDS011;61379;59.732;30.468;2022-09-09T09:30:44;7.53;;;6.00;;
73168;SDS011;61379;59.732;30.468;2022-09-09T09:33:14;7.75;;;7.07;;
73168;SDS011;61379;59.732;30.468;2022-09-09T09:35:41;6.40;;;5.90;;
73168;SDS011;61379;59.732;30.468;2022-09-09T09:38:11;7.43;;;6.82;;
73168;SDS011;61379;59.732;30.468;2022-09-09T09:40:49;7.53;;;6.97;;
73168;SDS011;61379;59.732;30.468;2022-09-09T09:43:18;6.90;;;6.25;;
73168;SDS011;61379;59.732;30.468;2022-09-09T09:45:46;6.80;;;6.30;;
73168;SDS011;61379;59.732;30.468;2022-09-09T09:48:13;8.60;;;7.80;;
73168;SDS011;61379;59.732;30.468;2022-09-09T09:50:46;6.65;;;5.97;;
73168;SDS011;61379;59.732;30.468;2022-09-09T09:53:17;7.43;;;6.93;;
73168;SDS011;61379;59.732;30.468;2022-09-09T09:55:47;7.85;;;7.35;;
73168;SDS011;61379;59.732;30.468;2022-09-09T09:58:17;7.53;;;6.80;;
73168;SDS011;61379;59.732;30.468;2022-09-09T10:00:47;7.82;;;7.20;;
73168;SDS011;61379;59.732;30.468;2022-09-09T10:03:19;8.88;;;7.68;;
73168;SDS011;61379;59.732;30.468;2022-09-09T10:05:47;7.80;;;7.03;;
73168;SDS011;61379;59.732;30.468;2022-09-09T10:08:14;8.75;;;7.25;;
73168;SDS011;61379;59.732;30.468;2022-09-09T10:10:57;7.80;;;7.30;;
73168;SDS011;61379;59.732;30.468;2022-09-09T10:13:28;7.03;;;6.53;;
73168;SDS011;61379;59.732;30.468;2022-09-09T10:16:04;8.68;;;7.53;;
73168;SDS011;61379;59.732;30.468;2022-09-09T10:18:45;8.20;;;7.70;;
73168;SDS011;61379;59.732;30.468;2022-09-09T10:23:59;8.07;;;7.38;;
73168;SDS011;61379;59.732;30.468;2022-09-09T10:26:34;8.65;;;8.00;;
73168;SDS011;61379;59.732;30.468;2022-09-09T10:29:10;9.18;;;8.55;;
73168;SDS011;61379;59.732;30.468;2022-09-09T10:31:44;8.18;;;7.38;;
73168;SDS011;61379;59.732;30.468;2022-09-09T10:34:19;7.90;;;7.30;;
73168;SDS011;61379;59.732;30.468;2022-09-09T10:36:52;8.30;;;7.47;;
73168;SDS011;61379;59.732;30.468;2022-09-09T10:39:24;8.25;;;7.60;;
73168;SDS011;61379;59.732;30.468;2022-09-09T10:41:55;8.30;;;7.60;;
73168;SDS011;61379;59.732;30.468;2022-09-09T10:44:32;8.45;;;7.68;;
73168;SDS011;61379;59.732;30.468;2022-09-09T10:47:08;7.43;;;6.78;;
73168;SDS011;61379;59.732;30.468;2022-09-09T10:49:46;9.20;;;8.52;;
73168;SDS011;61379;59.732;30.468;2022-09-09T10:52:19;8.30;;;7.80;;
73168;SDS011;61379;59.732;30.468;2022-09-09T10:54:51;8.30;;;7.43;;
73168;SDS011;61379;59.732;30.468;2022-09-09T10:57:24;8.05;;;7.35;;
73168;SDS011;61379;59.732;30.468;2022-09-09T10:59:55;7.53;;;7.03;;
73168;SDS011;61379;59.732;30.468;2022-09-09T11:02:26;7.32;;;6.82;;
73168;SDS011;61379;59.732;30.468;2022-09-09T11:04:54;9.38;;;6.20;;
73168;SDS011;61379;59.732;30.468;2022-09-09T11:07:24;8.00;;;7.40;;
73168;SDS011;61379;59.732;30.468;2022-09-09T11:09:52;8.02;;;7.50;;
73168;SDS011;61379;59.732;30.468;2022-09-09T11:12:21;8.05;;;7.28;;
73168;SDS011;61379;59.732;30.468;2022-09-09T11:14:49;8.63;;;7.80;;
73168;SDS011;61379;59.732;30.468;2022-09-09T11:17:20;8.45;;;7.85;;
73168;SDS011;61379;59.732;30.468;2022-09-09T11:19:47;7.63;;;6.95;;
73168;SDS011;61379;59.732;30.468;2022-09-09T11:22:19;8.30;;;7.70;;
73168;SDS011;61379;59.732;30.468;2022-09-09T11:24:49;11.15;;;8.50;;
73168;SDS011;61379;59.732;30.468;2022-09-09T11:29:47;8.45;;;7.78;;
73168;SDS011;61379;59.732;30.468;2022-09-09T11:32:24;12.20;;;7.93;;
73168;SDS011;61379;59.732;30.468;2022-09-09T11:34:56;15.48;;;8.73;;
73168;SDS011;61379;59.732;30.468;2022-09-09T11:37:37;26.45;;;10.15;;
73168;SDS011;61379;59.732;30.468;2022-09-09T11:40:08;65.10;;;15.48;;
73168;SDS011;61379;59.732;30.468;2022-09-09T11:42:36;17.90;;;8.60;;
73168;SDS011;61379;59.732;30.468;2022-09-09T11:45:22;9.27;;;8.23;;
73168;SDS011;61379;59.732;30.468;2022-09-09T11:47:53;7.72;;;7.13;;
73168;SDS011;61379;59.732;30.468;2022-09-09T11:50:30;8.52;;;7.72;;
73168;SDS011;61379;59.732;30.468;2022-09-09T11:53:05;7.80;;;7.25;;
73168;SDS011;61379;59.732;30.468;2022-09-09T11:55:33;8.88;;;8.13;;
73168;SDS011;61379;59.732;30.468;2022-09-09T11:58:01;8.30;;;7.70;;
73168;SDS011;61379;59.732;30.468;2022-09-09T12:00:32;8.55;;;7.95;;
73168;SDS011;61379;59.732;30.468;2022-09-09T12:03:01;7.60;;;6.85;;
73168;SDS011;61379;59.732;30.468;2022-09-09T12:05:35;8.23;;;7.40;;
73168;SDS011;61379;59.732;30.468;2022-09-09T12:08:02;8.45;;;7.75;;
73168;SDS011;61379;59.732;30.468;2022-09-09T12:10:30;9.45;;;8.50;;
73168;SDS011;61379;59.732;30.468;2022-09-09T12:13:07;8.65;;;8.05;;
73168;SDS011;61379;59.732;30.468;2022-09-09T12:15:34;8.02;;;7.32;;
73168;SDS011;61379;59.732;30.468;2022-09-09T12:18:02;9.35;;;8.60;;
73168;SDS011;61379;59.732;30.468;2022-09-09T12:20:34;8.77;;;8.07;;
73168;SDS011;61379;59.732;30.468;2022-09-09T12:23:15;8.60;;;7.38;;
73168;SDS011;61379;59.732;30.468;2022-09-09T12:25:57;8.90;;;8.20;;
73168;SDS011;61379;59.732;30.468;2022-09-09T12:28:25;6.45;;;5.68;;
73168;SDS011;61379;59.732;30.468;2022-09-09T12:33:21;8.00;;;7.45;;
73168;SDS011;61379;59.732;30.468;2022-09-09T12:35:50;7.85;;;7.25;;
73168;SDS011;61379;59.732;30.468;2022-09-09T12:38:19;8.13;;;7.43;;
73168;SDS011;61379;59.732;30.468;2022-09-09T12:40:53;7.70;;;7.10;;
73168;SDS011;61379;59.732;30.468;2022-09-09T12:43:21;8.55;;;7.95;;
73168;SDS011;61379;59.732;30.468;2022-09-09T12:45:48;8.18;;;7.65;;
73168;SDS011;61379;59.732;30.468;2022-09-09T12:48:24;8.50;;;7.80;;
73168;SDS011;61379;59.732;30.468;2022-09-09T12:50:52;8.05;;;7.28;;
73168;SDS011;61379;59.732;30.468;2022-09-09T12:53:21;7.78;;;7.07;;
73168;SDS011;61379;59.732;30.468;2022-09-09T12:55:49;8.20;;;7.53;;
73168;SDS011;61379;59.732;30.468;2022-09-09T12:58:17;7.95;;;7.43;;
73168;SDS011;61379;59.732;30.468;2022-09-09T13:00:48;9.25;;;8.45;;
73168;SDS011;61379;59.732;30.468;2022-09-09T13:03:16;8.60;;;7.90;;
73168;SDS011;61379;59.732;30.468;2022-09-09T13:05:44;8.48;;;7.88;;
73168;SDS011;61379;59.732;30.468;2022-09-09T13:08:12;8.07;;;7.38;;
73168;SDS011;61379;59.732;30.468;2022-09-09T13:10:40;6.18;;;5.68;;
73168;SDS011;61379;59.732;30.468;2022-09-09T13:13:11;7.35;;;6.75;;
73168;SDS011;61379;59.732;30.468;2022-09-09T13:15:39;6.82;;;6.03;;
73168;SDS011;61379;59.732;30.468;2022-09-09T13:18:06;8.88;;;8.20;;
73168;SDS011;61379;59.732;30.468;2022-09-09T13:20:38;8.93;;;8.23;;
73168;SDS011;61379;59.732;30.468;2022-09-09T13:23:08;8.93;;;8.32;;
73168;SDS011;61379;59.732;30.468;2022-09-09T13:25:38;9.75;;;9.15;;
73168;SDS011;61379;59.732;30.468;2022-09-09T13:28:18;10.15;;;9.35;;
73168;SDS011;61379;59.732;30.468;2022-09-09T13:30:54;8.82;;;8.30;;
73168;SDS011;61379;59.732;30.468;2022-09-09T13:33:28;9.35;;;8.45;;
73168;SDS011;61379;59.732;30.468;2022-09-09T13:35:56;9.48;;;8.77;;
73168;SDS011;61379;59.732;30.468;2022-09-09T13:38:24;9.20;;;8.40;;
73168;SDS011;61379;59.732;30.468;2022-09-09T13:40:52;9.10;;;8.50;;
73168;SDS011;61379;59.732;30.468;2022-09-09T13:43:20;9.18;;;8.38;;
73168;SDS011;61379;59.732;30.468;2022-09-09T13:45:52;9.02;;;8.23;;
73168;SDS011;61379;59.732;30.468;2022-09-09T13:48:19;9.18;;;8.27;;
73168;SDS011;61379;59.732;30.468;2022-09-09T13:50:53;9.23;;;8.52;;
73168;SDS011;61379;59.732;30.468;2022-09-09T13:53:19;8.60;;;7.88;;
73168;SDS011;61379;59.732;30.468;2022-09-09T13:55:47;8.65;;;7.88;;
73168;SDS011;61379;59.732;30.468;2022-09-09T13:58:15;9.23;;;8.52;;
73168;SDS011;61379;59.732;30.468;2022-09-09T14:00:43;8.90;;;8.10;;
73168;SDS011;61379;59.732;30.468;2022-09-09T14:03:10;8.35;;;7.65;;
73168;SDS011;61379;59.732;30.468;2022-09-09T14:05:36;8.90;;;8.07;;
73168;SDS011;61379;59.732;30.468;2022-09-09T14:08:03;8.20;;;7.70;;
73168;SDS011;61379;59.732;30.468;2022-09-09T14:10:30;7.25;;;6.65;;
73168;SDS011;61379;59.732;30.468;2022-09-09T14:12:59;7.90;;;7.20;;
73168;SDS011;61379;59.732;30.468;2022-09-09T14:15:26;9.65;;;8.85;;
73168;SDS011;61379;59.732;30.468;2022-09-09T14:17:53;10.43;;;9.32;;
73168;SDS011;61379;59.732;30.468;2022-09-09T14:20:20;10.02;;;9.10;;
73168;SDS011;61379;59.732;30.468;2022-09-09T14:22:47;8.95;;;8.15;;
73168;SDS011;61379;59.732;30.468;2022-09-09T14:25:14;8.57;;;7.93;;
73168;SDS011;61379;59.732;30.468;2022-09-09T14:27:40;8.98;;;8.32;;
73168;SDS011;61379;59.732;30.468;2022-09-09T14:30:09;8.90;;;8.20;;
73168;SDS011;61379;59.732;30.468;2022-09-09T14:32:36;9.07;;;8.20;;
73168;SDS011;61379;59.732;30.468;2022-09-09T14:35:03;8.77;;;7.97;;
73168;SDS011;61379;59.732;30.468;2022-09-09T14:37:30;8.90;;;8.25;;
73168;SDS011;61379;59.732;30.468;2022-09-09T14:39:57;6.88;;;6.38;;
73168;SDS011;61379;59.732;30.468;2022-09-09T14:42:24;7.65;;;7.07;;
73168;SDS011;61379;59.732;30.468;2022-09-09T14:44:51;8.23;;;7.53;;
73168;SDS011;61379;59.732;30.468;2022-09-09T14:47:19;8.48;;;7.88;;
73168;SDS011;61379;59.732;30.468;2022-09-09T14:49:45;8.55;;;7.75;;
73168;SDS011;61379;59.732;30.468;2022-09-09T14:52:14;8.20;;;7.50;;
73168;SDS011;61379;59.732;30.468;2022-09-09T14:54:41;9.45;;;8.50;;